Time;durP1;ratioP1;P1;durP2;ratioP2;P2;SDS_P1;SDS_P2;PMS_P1;PMS_P2;Temp;Humidity;BMP_temperature;BMP_pressure;BME280_temperature;BME280_humidity;BME280_pressure;Samples;Min_cycle;Max_cycle;Signal;HPM_P1;HPM_P2
2021/07/23 00:02:04;;;;;;;11.78;8.43;;;;;;;14.00;72.67;97498.48;1731214;82;25794;-84
2021/07/23 00:04:32;;;;;;;9.93;8.10;;;;;;;14.02;72.76;97498.22;1760229;80;25790;-83
2021/07/23 00:06:58;;;;;;;14.98;8.65;;;;;;;14.04;72.76;97508.33;1731326;82;25802;-89
2021/07/23 00:09:25;;;;;;;15.23;9.43;;;;;;;14.03;72.87;97502.59;1760292;80;25783;-83
2021/07/23 00:11:52;;;;;;;13.40;8.88;;;;;;;14.04;72.85;97508.33;1731308;82;28248;-86
2021/07/23 00:14:18;;;;;;;16.55;8.50;;;;;;;14.05;72.94;97505.38;1760256;80;25278;-85
2021/07/23 00:16:45;;;;;;;11.85;7.83;;;;;;;14.08;72.97;97505.98;1761454;80;25801;-88
2021/07/23 00:19:11;;;;;;;11.18;8.68;;;;;;;14.10;72.99;97502.52;1739742;80;25708;-81
2021/07/23 00:21:38;;;;;;;18.10;9.35;;;;;;;14.06;73.02;97496.19;1761025;80;25774;-89
2021/07/23 00:24:05;;;;;;;13.58;8.23;;;;;;;13.99;72.98;97492.75;1761568;80;28164;-86
2021/07/23 00:26:32;;;;;;;12.75;9.03;;;;;;;14.01;73.13;97494.68;1760887;80;26440;-85
2021/07/23 00:28:58;;;;;;;14.35;9.10;;;;;;;14.04;73.17;97498.83;1761311;80;25696;-85
2021/07/23 00:31:25;;;;;;;15.45;9.50;;;;;;;14.05;73.22;97495.88;1760847;80;25720;-88
2021/07/23 00:33:52;;;;;;;11.22;9.10;;;;;;;14.05;73.29;97503.20;1761337;80;25690;-89
2021/07/23 00:36:18;;;;;;;13.38;7.85;;;;;;;14.03;73.34;97499.35;1761026;80;27362;-86
2021/07/23 00:38:46;;;;;;;10.53;8.48;;;;;;;14.05;73.37;97504.55;1761000;80;25814;-82
2021/07/23 00:41:12;;;;;;;12.10;8.78;;;;;;;14.08;73.45;97508.70;1761193;80;25896;-88
2021/07/23 00:43:39;;;;;;;12.58;9.00;;;;;;;14.05;73.54;97506.74;1761044;80;25269;-87
2021/07/23 00:46:05;;;;;;;13.95;9.55;;;;;;;14.06;73.68;97505.69;1761335;80;25711;-83
2021/07/23 00:48:33;;;;;;;15.55;8.65;;;;;;;14.11;73.61;97501.46;1760972;80;27345;-83
2021/07/23 00:51:00;;;;;;;18.85;9.30;;;;;;;14.15;73.67;97497.20;1761345;80;26030;-92
2021/07/23 00:53:27;;;;;;;10.48;8.98;;;;;;;14.15;73.65;97495.84;1760838;80;26623;-91
2021/07/23 00:55:56;;;;;;;14.60;8.80;;;;;;;14.15;73.64;97490.41;1761149;80;25784;-88
2021/07/23 00:58:25;;;;;;;13.93;9.20;;;;;;;14.15;73.73;97484.45;1760698;80;25743;-87
2021/07/23 01:00:54;;;;;;;12.18;8.70;;;;;;;14.15;73.65;97486.34;1760940;80;28209;-81
2021/07/23 01:03:22;;;;;;;12.82;9.00;;;;;;;14.16;73.72;97485.28;1758575;80;25853;-88
2021/07/23 01:05:50;;;;;;;13.78;8.78;;;;;;;14.15;73.72;97486.34;1761024;80;25813;-83
2021/07/23 01:08:17;;;;;;;12.50;9.83;;;;;;;14.18;73.75;97494.03;1761322;80;26263;-91
2021/07/23 01:10:44;;;;;;;14.15;9.60;;;;;;;14.17;73.88;97482.88;1760906;80;25336;-87
2021/07/23 01:13:13;;;;;;;14.05;9.85;;;;;;;14.11;73.92;97483.29;1761368;80;27215;-88
2021/07/23 01:15:40;;;;;;;12.65;9.33;;;;;;;14.12;74.07;97478.69;1759410;80;25769;-85
2021/07/23 01:18:07;;;;;;;12.10;8.88;;;;;;;14.15;74.13;97476.84;1762610;80;25774;-88
2021/07/23 01:20:34;;;;;;;11.57;8.93;;;;;;;14.18;74.17;97479.10;1762353;80;26179;-88
2021/07/23 01:23:03;;;;;;;12.43;9.45;;;;;;;14.20;74.20;97489.20;1762353;80;26392;-90
2021/07/23 01:25:30;;;;;;;13.30;8.50;;;;;;;14.21;74.14;97484.08;1757466;80;28241;-86
2021/07/23 01:27:57;;;;;;;13.98;9.38;;;;;;;14.22;74.15;97487.92;1762171;81;25734;-88
2021/07/23 01:30:26;;;;;;;13.65;8.55;;;;;;;14.23;74.17;97480.60;1762508;80;25806;-88
2021/07/23 01:32:53;;;;;;;13.70;8.85;;;;;;;14.24;74.21;97478.19;1771548;78;25809;-87
2021/07/23 01:35:21;;;;;;;12.80;8.73;;;;;;;14.25;74.24;97472.50;1771735;78;25833;-88
2021/07/23 01:37:48;;;;;;;14.00;8.78;;;;;;;14.25;74.34;97479.28;1762234;79;27386;-90
2021/07/23 01:40:16;;;;;;;14.53;8.70;;;;;;;14.27;74.46;97477.70;1762394;80;26379;-87
2021/07/23 01:42:44;;;;;;;15.05;8.88;;;;;;;14.27;74.41;97473.62;1762219;80;25777;-84
2021/07/23 01:45:12;;;;;;;12.43;8.80;;;;;;;14.28;74.35;97467.14;1757125;80;26580;-84
2021/07/23 01:47:39;;;;;;;12.20;9.23;;;;;;;14.26;74.41;97466.54;1762555;80;25308;-88
2021/07/23 01:50:07;;;;;;;13.48;8.90;;;;;;;14.26;74.56;97461.11;1757239;80;27241;-89
2021/07/23 01:52:34;;;;;;;13.13;9.10;;;;;;;14.25;74.58;97458.13;1762411;79;25896;-87
2021/07/23 01:55:01;;;;;;;15.55;9.08;;;;;;;14.26;74.57;97460.58;1771393;79;25741;-83
2021/07/23 01:57:28;;;;;;;10.63;8.73;;;;;;;14.28;74.61;97466.61;1771460;78;25761;-86
2021/07/23 01:59:54;;;;;;;13.43;8.98;;;;;;;14.28;74.74;97464.42;1762348;80;25727;-85
2021/07/23 02:02:21;;;;;;;14.90;8.20;;;;;;;14.26;74.81;97462.47;1762678;80;27425;-87
2021/07/23 02:04:48;;;;;;;14.05;9.58;;;;;;;14.29;74.85;97463.36;1762385;80;26067;-87
2021/07/23 02:07:14;;;;;;;10.23;8.43;;;;;;;14.32;74.86;97466.45;1762500;80;25667;-83
2021/07/23 02:09:41;;;;;;;14.28;8.90;;;;;;;14.33;74.89;97464.03;1762647;80;25814;-87
2021/07/23 02:12:09;;;;;;;11.53;8.65;;;;;;;14.32;74.82;97461.55;1762599;80;25739;-85
2021/07/23 02:14:35;;;;;;;13.00;8.53;;;;;;;14.31;74.79;97457.17;1775165;78;27387;-88
2021/07/23 02:17:02;;;;;;;13.38;8.55;;;;;;;14.32;74.82;97463.73;1802239;79;26366;-86
2021/07/23 02:19:29;;;;;;;10.82;8.80;;;;;;;14.33;74.84;97460.49;1792590;79;26664;-91
2021/07/23 02:21:55;;;;;;;15.90;9.30;;;;;;;14.29;74.90;97467.44;1765623;79;26147;-92
2021/07/23 02:24:22;;;;;;;11.60;9.33;;;;;;;14.27;74.93;97458.16;1755017;80;25874;-81
2021/07/23 02:26:48;;;;;;;11.15;8.53;;;;;;;14.28;74.97;97458.46;1755166;80;27427;-91
2021/07/23 02:29:16;;;;;;;11.53;8.58;;;;;;;14.31;75.05;97459.89;1761345;80;25714;-86
2021/07/23 02:31:43;;;;;;;14.45;8.35;;;;;;;14.31;75.15;97457.17;1791346;78;26305;-90
2021/07/23 02:34:09;;;;;;;13.95;8.68;;;;;;;14.31;75.12;97460.72;1767373;78;26231;-91
2021/07/23 02:36:36;;;;;;;14.65;8.58;;;;;;;14.33;75.13;97453.70;1750801;80;25720;-91
2021/07/23 02:39:04;;;;;;;14.50;8.93;;;;;;;14.34;75.17;97452.64;1783635;79;27410;-91
2021/07/23 02:41:30;;;;;;;12.65;8.90;;;;;;;14.31;75.20;97448.50;1760105;80;25825;-92
2021/07/23 02:43:57;;;;;;;15.53;9.60;;;;;;;14.31;75.20;97443.59;1739702;80;25781;-89
2021/07/23 02:46:23;;;;;;;15.08;8.60;;;;;;;14.30;75.27;97440.05;1749579;80;25756;-90
2021/07/23 02:48:50;;;;;;;15.43;9.05;;;;;;;14.31;75.28;97448.50;1762080;80;26397;-91
2021/07/23 02:51:16;;;;;;;11.65;8.58;;;;;;;14.33;75.30;97442.84;1761911;80;27442;-91
2021/07/23 02:53:43;;;;;;;11.45;9.18;;;;;;;14.34;75.29;97443.14;1762086;80;26242;-89
2021/07/23 02:56:09;;;;;;;13.22;9.45;;;;;;;14.34;75.35;97441.25;1761889;80;25781;-88
2021/07/23 02:58:42;;;;;;;18.70;8.33;;;;;;;14.36;75.39;97440.49;1762151;80;25803;-86
2021/07/23 03:01:09;;;;;;;14.35;8.65;;;;;;;14.37;75.35;97444.00;1761983;80;25801;-91
2021/07/23 03:03:36;;;;;;;11.60;8.43;;;;;;;14.38;75.36;97436.98;1762082;80;27471;-90
2021/07/23 03:06:03;;;;;;;13.62;8.90;;;;;;;14.37;75.39;97428.54;1761781;80;25742;-88
2021/07/23 03:08:29;;;;;;;15.85;9.28;;;;;;;14.38;75.42;97434.27;1761816;80;25817;-88
2021/07/23 03:10:56;;;;;;;14.55;8.85;;;;;;;14.38;75.38;97434.80;1762077;80;25674;-90
2021/07/23 03:13:23;;;;;;;11.18;8.35;;;;;;;14.38;75.46;97429.37;1772593;79;25704;-88
2021/07/23 03:15:49;;;;;;;17.32;8.60;;;;;;;14.40;75.55;97435.43;1792707;79;27374;-91
2021/07/23 03:18:17;;;;;;;15.13;9.00;;;;;;;14.40;75.60;97432.71;1790036;79;25762;-86
2021/07/23 03:20:44;;;;;;;14.05;9.13;;;;;;;14.35;75.66;97427.14;1790292;79;25754;-91
2021/07/23 03:23:10;;;;;;;13.53;10.00;;;;;;;14.34;75.69;97429.56;1790259;80;25764;-92
2021/07/23 03:25:37;;;;;;;14.15;10.98;;;;;;;14.35;75.75;97429.86;1790585;80;25777;-91
2021/07/23 03:28:04;;;;;;;15.08;10.38;;;;;;;14.36;75.74;97432.87;1790134;80;27373;-92
2021/07/23 03:30:33;;;;;;;14.75;9.93;;;;;;;14.39;75.72;97430.53;1789950;79;25685;-90
2021/07/23 03:32:59;;;;;;;14.73;9.75;;;;;;;14.42;75.78;97423.80;1790134;79;25935;-88
2021/07/23 03:35:27;;;;;;;14.23;9.70;;;;;;;14.41;75.86;97428.94;1790056;80;26570;-88
2021/07/23 03:37:54;;;;;;;13.00;8.68;;;;;;;14.44;75.84;97433.08;1790614;80;25759;-93
2021/07/23 03:40:21;;;;;;;13.62;9.55;;;;;;;14.44;75.87;97439.34;1790239;80;27582;-88
2021/07/23 03:42:47;;;;;;;10.78;9.13;;;;;;;14.47;75.97;97438.88;1790434;79;25984;-93
2021/07/23 03:45:14;;;;;;;11.75;9.48;;;;;;;14.50;75.94;97438.38;1790137;80;25454;-88
2021/07/23 03:47:41;;;;;;;12.93;9.83;;;;;;;14.51;75.99;97434.61;1790186;79;25642;-92
2021/07/23 03:50:08;;;;;;;11.50;9.08;;;;;;;14.50;76.02;97430.77;1790086;80;25757;-91
2021/07/23 03:52:35;;;;;;;13.53;9.43;;;;;;;14.51;76.04;97435.97;1790115;79;27519;-90
2021/07/23 03:55:02;;;;;;;14.47;9.45;;;;;;;14.53;76.10;97435.20;1790346;79;25738;-91
2021/07/23 03:57:28;;;;;;;11.03;9.35;;;;;;;14.57;76.05;97434.21;1790179;80;25797;-89
2021/07/23 03:59:55;;;;;;;11.75;8.98;;;;;;;14.58;76.08;97431.27;1790543;80;25714;-91
2021/07/23 04:02:21;;;;;;;13.88;9.03;;;;;;;14.57;76.15;97424.70;1790078;80;25793;-90
2021/07/23 04:04:48;;;;;;;14.55;10.13;;;;;;;14.59;76.17;97431.56;1790420;80;28041;-86
2021/07/23 04:07:14;;;;;;;12.07;9.05;;;;;;;14.63;76.13;97429.17;1790080;79;25849;-90
2021/07/23 04:09:41;;;;;;;12.23;9.38;;;;;;;14.67;76.15;97431.20;1790319;80;25792;-84
2021/07/23 04:12:08;;;;;;;12.23;9.00;;;;;;;14.69;76.07;97425.00;1790336;80;25761;-92
2021/07/23 04:14:34;;;;;;;12.95;9.63;;;;;;;14.72;76.12;97431.33;1790308;79;25737;-90
2021/07/23 04:17:01;;;;;;;13.28;9.68;;;;;;;14.75;76.13;97433.55;1792036;79;27440;-91
2021/07/23 04:19:27;;;;;;;15.32;9.90;;;;;;;14.79;76.11;97433.91;1793119;79;25993;-90
2021/07/23 04:21:54;;;;;;;11.43;9.28;;;;;;;14.81;76.12;97426.88;1793412;79;25462;-89
2021/07/23 04:24:20;;;;;;;14.28;9.95;;;;;;;14.81;76.13;97426.35;1793195;79;25736;-86
2021/07/23 04:26:48;;;;;;;14.33;9.68;;;;;;;14.83;76.14;97428.83;1793644;79;25631;-92
2021/07/23 04:29:14;;;;;;;18.98;9.38;;;;;;;14.84;76.05;97425.05;1793213;79;27607;-87
2021/07/23 04:31:41;;;;;;;16.52;9.55;;;;;;;14.89;76.13;97426.51;1793126;79;25741;-88
2021/07/23 04:34:08;;;;;;;16.90;10.13;;;;;;;14.94;76.19;97430.17;1793449;79;25757;-90
2021/07/23 04:36:35;;;;;;;13.95;10.25;;;;;;;14.96;76.25;97428.05;1793101;79;25788;-82
2021/07/23 04:39:03;;;;;;;17.45;9.85;;;;;;;15.00;76.27;97416.15;1793610;79;25544;-91
2021/07/23 04:41:30;;;;;;;11.85;9.38;;;;;;;15.05;76.28;97419.81;1793298;79;27382;-87
2021/07/23 04:43:57;;;;;;;11.38;8.88;;;;;;;15.10;76.20;97419.91;1793186;80;25848;-92
2021/07/23 04:46:24;;;;;;;10.72;9.10;;;;;;;15.14;76.24;97419.73;1793187;79;25211;-92
2021/07/23 04:48:50;;;;;;;14.83;9.30;;;;;;;15.17;76.14;97412.17;1793234;80;25745;-91
2021/07/23 04:51:17;;;;;;;10.53;9.03;;;;;;;15.21;76.18;97415.53;1793275;79;25632;-85
2021/07/23 04:53:43;;;;;;;12.95;9.63;;;;;;;15.27;76.19;97416.45;1793241;79;28458;-88
2021/07/23 04:56:10;;;;;;;14.68;9.70;;;;;;;15.31;76.11;97416.27;1793353;79;25655;-89
2021/07/23 04:58:37;;;;;;;14.78;10.08;;;;;;;15.32;75.97;97409.23;1793274;79;26314;-88
2021/07/23 05:01:03;;;;;;;12.95;9.75;;;;;;;15.36;75.93;97406.30;1793453;79;26227;-87
2021/07/23 05:03:36;;;;;;;16.23;10.00;;;;;;;15.41;75.86;97409.67;1793217;79;25713;-90
2021/07/23 05:06:06;;;;;;;15.15;9.95;;;;;;;15.46;75.83;97402.42;1793471;79;27421;-91
2021/07/23 05:08:34;;;;;;;13.85;9.70;;;;;;;15.52;75.79;97403.89;1792917;79;25749;-89
2021/07/23 05:11:03;;;;;;;14.00;9.13;;;;;;;15.55;75.72;97396.64;1793576;79;25860;-86
2021/07/23 05:13:30;;;;;;;14.73;9.95;;;;;;;15.58;75.62;97399.68;1793297;79;25741;-90
2021/07/23 05:15:57;;;;;;;13.83;9.90;;;;;;;15.62;75.55;97397.31;1793120;79;25692;-86
2021/07/23 05:18:26;;;;;;;15.20;10.38;;;;;;;15.63;75.52;97397.07;1793619;79;27606;-86
2021/07/23 05:20:53;;;;;;;12.28;9.60;;;;;;;15.64;75.48;97395.18;1793581;79;26385;-87
2021/07/23 05:23:20;;;;;;;11.90;9.53;;;;;;;15.68;75.37;97390.91;1772005;79;26645;-91
2021/07/23 05:25:48;;;;;;;15.25;9.88;;;;;;;15.73;75.28;97393.70;1793986;79;26563;-90
2021/07/23 05:28:15;;;;;;;18.02;10.05;;;;;;;15.78;75.10;97393.81;1794006;79;25741;-88
2021/07/23 05:30:41;;;;;;;17.82;10.03;;;;;;;15.79;74.99;97392.74;1781554;79;27375;-89
2021/07/23 05:33:08;;;;;;;19.17;9.35;;;;;;;15.83;75.02;97390.62;1793804;79;25788;-87
2021/07/23 05:35:34;;;;;;;15.55;9.63;;;;;;;15.88;74.89;97392.63;1793774;79;25753;-89
2021/07/23 05:38:01;;;;;;;13.28;8.80;;;;;;;15.89;74.57;97387.48;1793886;79;26391;-90
2021/07/23 05:40:27;;;;;;;11.28;9.55;;;;;;;15.89;74.53;97384.76;1794278;79;26539;-87
2021/07/23 05:42:54;;;;;;;14.47;9.08;;;;;;;15.95;74.58;97384.29;1794042;79;28351;-87
2021/07/23 05:45:21;;;;;;;14.80;9.15;;;;;;;16.00;74.34;97379.77;1794118;79;25892;-90
2021/07/23 05:47:47;;;;;;;13.75;9.05;;;;;;;16.04;74.19;97379.58;1793743;79;25845;-86
2021/07/23 05:50:14;;;;;;;13.83;9.33;;;;;;;16.09;74.21;97382.91;1794008;79;25856;-80
2021/07/23 05:52:40;;;;;;;11.45;9.10;;;;;;;16.16;74.06;97385.77;1792961;78;25878;-81
2021/07/23 05:55:09;;;;;;;13.18;10.28;;;;;;;16.25;73.80;97386.72;1788918;79;27343;-79
2021/07/23 05:57:35;;;;;;;14.75;9.90;;;;;;;16.31;73.71;97388.43;1792672;78;25488;-85
2021/07/23 06:00:05;;;;;;;14.55;9.18;;;;;;;16.38;73.81;97380.94;1793857;79;25733;-87
2021/07/23 06:02:32;;;;;;;15.45;9.58;;;;;;;16.44;73.74;97381.28;1794168;79;26105;-91
2021/07/23 06:04:59;;;;;;;13.38;10.23;;;;;;;16.51;73.70;97381.42;1793894;79;26322;-88
2021/07/23 06:07:25;;;;;;;12.58;8.90;;;;;;;16.59;73.62;97381.52;1794131;79;28188;-88
2021/07/23 06:09:52;;;;;;;11.73;9.23;;;;;;;16.65;73.33;97370.20;1793763;79;25791;-88
2021/07/23 06:12:19;;;;;;;13.68;9.60;;;;;;;16.71;73.12;97379.55;1794349;79;25697;-89
2021/07/23 06:14:45;;;;;;;11.73;8.90;;;;;;;16.79;73.01;97374.19;1793820;79;25344;-89
2021/07/23 06:17:12;;;;;;;12.78;8.55;;;;;;;16.88;72.89;97376.80;1792395;79;25836;-80
2021/07/23 06:19:38;;;;;;;12.78;8.15;;;;;;;16.98;72.88;97372.02;1790436;79;27559;-90
2021/07/23 06:22:05;;;;;;;14.00;7.75;;;;;;;17.09;72.61;97372.42;1781819;78;25804;-87
2021/07/23 06:24:33;;;;;;;8.93;7.78;;;;;;;17.16;72.13;97373.05;1788841;78;25787;-90
2021/07/23 06:27:00;;;;;;;11.95;7.42;;;;;;;17.29;72.28;97369.94;1806584;78;25550;-86
2021/07/23 06:29:26;;;;;;;12.20;7.17;;;;;;;17.40;71.83;97368.97;1790502;79;25633;-92
2021/07/23 06:31:58;;;;;;;11.90;7.92;;;;;;;17.49;71.52;97364.73;1790258;80;27358;-85
2021/07/23 06:34:25;;;;;;;12.93;8.23;;;;;;;17.61;71.43;97375.50;1790700;80;25738;-90
2021/07/23 06:36:51;;;;;;;13.90;9.25;;;;;;;17.71;71.31;97370.17;1790168;80;26340;-89
2021/07/23 06:39:18;;;;;;;14.25;8.98;;;;;;;17.80;71.38;97371.89;1790320;79;26148;-85
2021/07/23 06:41:45;;;;;;;11.73;8.83;;;;;;;17.91;71.23;97375.00;1790587;80;25393;-90
2021/07/23 06:44:12;;;;;;;13.38;9.33;;;;;;;17.98;71.28;97370.16;1790218;79;27489;-87
2021/07/23 06:46:39;;;;;;;11.20;8.68;;;;;;;18.05;70.98;97372.13;1790439;79;25728;-87
2021/07/23 06:49:05;;;;;;;11.12;8.25;;;;;;;18.13;70.87;97370.28;1789946;80;25720;-85
2021/07/23 06:51:32;;;;;;;15.68;9.15;;;;;;;18.20;70.68;97365.44;1790486;80;25801;-89
2021/07/23 06:53:59;;;;;;;16.87;9.48;;;;;;;18.27;70.82;97361.10;1786566;80;25735;-88
2021/07/23 06:56:27;;;;;;;11.15;8.88;;;;;;;18.29;70.69;97358.40;1790546;79;27534;-88
2021/07/23 06:58:54;;;;;;;12.60;8.88;;;;;;;18.34;70.27;97356.26;1790018;79;25833;-88
2021/07/23 07:01:20;;;;;;;14.73;9.60;;;;;;;18.36;70.17;97352.16;1790296;80;25721;-83
2021/07/23 07:03:47;;;;;;;13.62;9.00;;;;;;;18.36;70.43;97348.59;1790451;79;25784;-91
2021/07/23 07:06:14;;;;;;;16.12;10.28;;;;;;;18.41;70.32;97343.72;1790313;79;25748;-86
2021/07/23 07:08:40;;;;;;;16.87;8.48;;;;;;;18.51;70.01;97349.25;1785474;80;27411;-91
2021/07/23 07:11:07;;;;;;;12.85;8.75;;;;;;;18.59;69.78;97348.81;1790203;79;25948;-87
2021/07/23 07:13:34;;;;;;;11.00;8.45;;;;;;;18.63;69.72;97348.00;1790280;79;25737;-90
2021/07/23 07:16:04;;;;;;;14.20;8.90;;;;;;;18.70;69.84;97347.78;1786390;78;26345;-87
2021/07/23 07:18:31;;;;;;;11.33;8.48;;;;;;;18.79;69.73;97353.02;1790262;80;25708;-87
2021/07/23 07:20:57;;;;;;;15.90;8.18;;;;;;;18.88;70.07;97348.69;1790189;79;27578;-92
2021/07/23 07:23:24;;;;;;;10.35;7.85;;;;;;;18.98;69.95;97346.55;1790252;78;25297;-92
2021/07/23 07:25:50;;;;;;;10.00;8.33;;;;;;;19.05;69.77;97345.23;1790590;79;25716;-93
2021/07/23 07:28:17;;;;;;;15.40;9.28;;;;;;;19.13;69.89;97349.90;1785829;78;26155;-88
2021/07/23 07:30:46;;;;;;;15.23;8.65;;;;;;;19.25;69.54;97348.59;1773529;78;25674;-93
2021/07/23 07:33:12;;;;;;;12.90;7.45;;;;;;;19.35;68.83;97343.69;1790119;79;27461;-91
2021/07/23 07:35:40;;;;;;;10.55;7.10;;;;;;;19.45;68.28;97343.71;1790297;79;25776;-91
2021/07/23 07:38:07;;;;;;;10.60;7.47;;;;;;;19.55;68.19;97345.16;1790123;79;26290;-92
2021/07/23 07:40:34;;;;;;;9.35;7.15;;;;;;;19.67;67.98;97343.00;1768447;80;25978;-84
2021/07/23 07:43:00;;;;;;;9.43;7.92;;;;;;;19.81;67.79;97341.08;1789845;79;25239;-93
2021/07/23 07:45:27;;;;;;;11.90;7.92;;;;;;;19.91;67.58;97334.27;1790185;79;27560;-88
2021/07/23 07:47:54;;;;;;;12.18;8.25;;;;;;;20.03;67.48;97338.94;1768593;79;25836;-92
2021/07/23 07:50:20;;;;;;;11.97;7.47;;;;;;;20.19;67.21;97340.56;1760847;80;25837;-88
2021/07/23 07:52:47;;;;;;;9.70;7.10;;;;;;;20.32;66.95;97337.27;1768490;79;25829;-89
2021/07/23 07:55:13;;;;;;;15.23;8.25;;;;;;;20.43;66.67;97334.82;1790186;79;25686;-90
2021/07/23 07:57:42;;;;;;;12.33;7.53;;;;;;;20.61;66.86;97333.98;1790233;80;28586;-91
2021/07/23 08:00:09;;;;;;;8.63;7.00;;;;;;;20.70;66.79;97333.14;1790028;79;25763;-90
2021/07/23 08:02:36;;;;;;;9.23;6.55;;;;;;;20.75;66.18;97336.43;1790178;79;25726;-83
2021/07/23 08:05:03;;;;;;;9.08;6.95;;;;;;;20.92;66.10;97331.42;1790470;79;25768;-89
2021/07/23 08:07:32;;;;;;;8.10;6.60;;;;;;;21.05;66.30;97328.09;1790199;79;25804;-86
2021/07/23 08:10:01;;;;;;;9.75;7.10;;;;;;;21.32;65.67;97331.85;1758482;80;27422;-90
2021/07/23 08:12:27;;;;;;;9.93;7.00;;;;;;;21.79;65.12;97331.30;1786238;79;25838;-88
2021/07/23 08:14:53;;;;;;;8.98;6.25;;;;;;;22.10;64.85;97331.92;1784070;79;26467;-89
2021/07/23 08:17:22;;;;;;;9.03;6.97;;;;;;;22.43;64.37;97329.47;1789608;80;26227;-87
2021/07/23 08:19:49;;;;;;;10.90;5.97;;;;;;;22.78;62.90;97330.52;1793266;79;25708;-90
2021/07/23 08:22:17;;;;;;;10.13;6.90;;;;;;;22.78;62.90;97330.52;1793262;79;27451;-88
2021/07/23 08:24:45;;;;;;;8.10;6.70;;;;;;;22.82;62.99;97326.05;1793133;79;25792;-84
2021/07/23 08:27:12;;;;;;;8.63;6.45;;;;;;;22.81;62.43;97328.56;1793486;79;25877;-89
2021/07/23 08:29:38;;;;;;;11.80;6.37;;;;;;;22.81;62.35;97333.25;1793190;79;26153;-89
2021/07/23 08:32:13;;;;;;;8.25;6.08;;;;;;;22.95;62.04;97332.23;1793571;79;25746;-90
2021/07/23 08:34:40;;;;;;;9.40;6.22;;;;;;;23.16;61.90;97323.77;1793158;79;26826;-85
2021/07/23 08:37:07;;;;;;;9.13;6.08;;;;;;;23.03;61.41;97321.16;1793563;79;25983;-90
2021/07/23 08:39:34;;;;;;;8.43;6.05;;;;;;;23.16;61.66;97325.95;1793226;79;25697;-88
2021/07/23 08:42:28;;;;;;;8.30;5.35;;;;;;;23.30;61.05;97326.89;1793439;79;25462;-89
2021/07/23 08:44:59;;;;;;;7.53;6.10;;;;;;;23.40;60.80;97330.62;1793207;79;25756;-89
2021/07/23 08:47:26;;;;;;;8.05;5.78;;;;;;;23.67;60.60;97326.11;1792109;79;27281;-85
2021/07/23 08:49:53;;;;;;;8.25;5.95;;;;;;;23.81;60.47;97326.19;1791933;78;25701;-85
2021/07/23 08:52:47;;;;;;;7.75;5.42;;;;;;;23.83;59.76;97323.97;1762695;79;25773;-84
2021/07/23 08:55:16;;;;;;;7.90;5.60;;;;;;;23.77;58.72;97326.55;1785617;79;26374;-87
2021/07/23 08:57:44;;;;;;;6.15;5.55;;;;;;;23.66;58.83;97319.55;1760880;80;26626;-84
2021/07/23 09:00:21;;;;;;;5.72;5.03;;;;;;;23.78;58.51;97324.05;1757368;80;27448;-84
2021/07/23 09:03:07;;;;;;;8.18;6.08;;;;;;;23.83;58.47;97322.59;1786725;79;25741;-86
2021/07/23 09:05:42;;;;;;;7.70;5.53;;;;;;;23.80;58.01;97325.93;1793596;79;25955;-90
2021/07/23 09:08:13;;;;;;;6.80;5.90;;;;;;;23.71;57.89;97324.97;1771173;79;25774;-86
2021/07/23 09:10:41;;;;;;;7.23;5.50;;;;;;;23.67;56.99;97317.02;1793740;79;25772;-85
2021/07/23 09:13:08;;;;;;;8.65;5.42;;;;;;;23.74;56.59;97318.05;1793081;79;27230;-87
2021/07/23 09:15:44;;;;;;;7.53;5.45;;;;;;;23.82;56.60;97324.26;1793299;79;25888;-87
2021/07/23 09:18:31;;;;;;;6.83;5.08;;;;;;;24.10;56.19;97325.21;1792873;79;25816;-87
2021/07/23 09:21:06;;;;;;;7.58;6.10;;;;;;;24.19;55.81;97324.78;1793225;79;25784;-88
2021/07/23 09:23:36;;;;;;;6.25;5.50;;;;;;;24.22;55.27;97327.80;1793364;79;25811;-89
2021/07/23 09:26:16;;;;;;;9.03;6.58;;;;;;;24.23;55.67;97321.72;1793195;79;27334;-83
2021/07/23 09:28:49;;;;;;;6.65;5.85;;;;;;;24.27;55.32;97318.63;1793094;79;25757;-89
2021/07/23 09:31:24;;;;;;;10.30;5.87;;;;;;;24.62;55.11;97301.45;1793112;79;25777;-84
2021/07/23 09:33:58;;;;;;;8.10;5.47;;;;;;;25.01;55.41;97302.92;1777950;80;25786;-91
2021/07/23 09:36:24;;;;;;;6.10;5.35;;;;;;;25.49;55.37;97312.40;1788462;80;25806;-89
2021/07/23 09:38:52;;;;;;;6.67;5.85;;;;;;;25.92;54.25;97305.12;1793686;79;28181;-88
2021/07/23 09:41:26;;;;;;;6.33;5.62;;;;;;;26.20;52.97;97301.09;1771129;79;26077;-89
2021/07/23 09:44:07;;;;;;;6.95;5.45;;;;;;;26.36;52.94;97299.36;1793309;80;25710;-88
2021/07/23 09:46:41;;;;;;;6.22;5.62;;;;;;;26.45;52.18;97297.45;1793329;79;25765;-86
2021/07/23 09:49:28;;;;;;;6.53;5.40;;;;;;;26.37;51.52;97296.84;1790715;80;25774;-87
2021/07/23 09:51:59;;;;;;;10.60;5.95;;;;;;;26.43;51.02;97295.03;1792295;79;27436;-87
2021/07/23 09:54:25;;;;;;;7.67;5.70;;;;;;;26.42;50.87;97286.48;1793423;80;25869;-87
2021/07/23 09:56:52;;;;;;;6.80;5.50;;;;;;;26.51;50.66;97285.13;1792202;78;26379;-83
2021/07/23 09:59:49;;;;;;;6.65;5.95;;;;;;;26.58;50.71;97277.18;1793234;79;26490;-82
2021/07/23 10:02:20;;;;;;;7.92;5.65;;;;;;;26.84;50.80;97282.84;1793133;79;25738;-87
2021/07/23 10:05:06;;;;;;;7.50;6.37;;;;;;;26.92;50.77;97276.55;1793250;79;27362;-87
2021/07/23 10:07:59;;;;;;;10.98;7.12;;;;;;;26.71;50.94;97277.66;1793130;79;25747;-87
2021/07/23 10:10:27;;;;;;;11.43;7.28;;;;;;;26.39;51.19;97271.06;1766398;80;26328;-85
2021/07/23 10:12:55;;;;;;;14.43;8.43;;;;;;;26.23;51.98;97268.39;1793603;80;25764;-89
2021/07/23 10:15:22;;;;;;;9.70;7.00;;;;;;;26.32;51.96;97263.79;1793083;79;25732;-88
2021/07/23 10:17:50;;;;;;;7.95;6.87;;;;;;;26.48;52.11;97263.62;1792196;79;27493;-90
2021/07/23 10:20:21;;;;;;;8.95;6.28;;;;;;;26.72;52.31;97268.22;1759783;80;26062;-88
2021/07/23 10:22:55;;;;;;;12.93;6.80;;;;;;;26.98;52.07;97260.62;1756353;81;25670;-88
2021/07/23 10:25:26;;;;;;;8.40;6.95;;;;;;;27.20;51.78;97263.28;1745497;80;26427;-89
2021/07/23 10:27:53;;;;;;;8.85;7.08;;;;;;;27.35;51.50;97259.25;1760637;80;25706;-89
2021/07/23 10:30:36;;;;;;;8.93;7.20;;;;;;;27.57;51.88;97259.97;1760345;81;27284;-89
2021/07/23 10:33:05;;;;;;;9.63;7.55;;;;;;;27.66;51.17;97261.35;1760420;80;25705;-91
2021/07/23 10:35:34;;;;;;;9.43;6.92;;;;;;;27.46;50.42;97253.64;1760346;81;26360;-88
2021/07/23 10:38:02;;;;;;;8.38;6.95;;;;;;;27.21;50.69;97255.22;1760225;80;25666;-88
2021/07/23 10:40:40;;;;;;;10.03;7.12;;;;;;;27.15;51.19;97250.42;1748089;80;25710;-89
2021/07/23 10:43:34;;;;;;;7.35;6.65;;;;;;;27.14;50.95;97251.55;1754699;81;28213;-88
2021/07/23 10:46:01;;;;;;;8.08;6.90;;;;;;;27.17;50.96;97247.33;1760623;81;25714;-90
2021/07/23 10:48:47;;;;;;;7.05;6.35;;;;;;;27.33;50.34;97249.05;1760265;80;25671;-87
2021/07/23 10:51:52;;;;;;;7.85;5.55;;;;;;;27.51;50.62;97243.23;1740631;80;25426;-93
2021/07/23 10:54:21;;;;;;;7.72;6.33;;;;;;;27.64;49.53;97244.25;1729116;81;25754;-88
2021/07/23 10:57:03;;;;;;;8.35;6.47;;;;;;;27.73;48.84;97241.47;1755860;81;27490;-89
2021/07/23 10:59:48;;;;;;;7.42;6.20;;;;;;;27.64;48.21;97233.73;1760407;81;25777;-94
2021/07/23 11:02:21;;;;;;;9.93;6.45;;;;;;;27.54;48.60;97234.81;1752266;81;25821;-91
2021/07/23 11:04:53;;;;;;;9.28;6.92;;;;;;;27.28;48.46;97233.42;1748938;81;25682;-88
2021/07/23 11:07:25;;;;;;;8.08;6.40;;;;;;;27.04;48.65;97228.88;1760305;80;26381;-88
2021/07/23 11:09:51;;;;;;;9.25;6.85;;;;;;;26.85;49.01;97231.30;1760216;81;27205;-90
2021/07/23 11:12:31;;;;;;;7.53;6.65;;;;;;;26.53;48.50;97223.36;1760589;80;25682;-87
2021/07/23 11:14:59;;;;;;;10.68;6.75;;;;;;;26.14;48.76;97219.94;1760303;80;25742;-88
2021/07/23 11:17:27;;;;;;;8.28;6.60;;;;;;;25.95;49.86;97227.06;1759182;80;25745;-84
2021/07/23 11:20:01;;;;;;;9.18;6.45;;;;;;;25.85;50.24;97234.20;1763172;79;25719;-89
2021/07/23 11:22:33;;;;;;;7.78;6.20;;;;;;;25.77;50.22;97225.30;1766689;80;27404;-88
2021/07/23 11:25:08;;;;;;;;;;;;;;;25.63;50.38;97228.67;1769627;81;25680;-90
2021/07/23 11:27:41;;;;;;;9.25;6.55;;;;;;;25.46;49.86;97219.09;1766879;80;26257;-89
2021/07/23 11:30:27;;;;;;;12.82;6.62;;;;;;;25.28;50.94;97217.28;1772409;80;25702;-94
2021/07/23 11:32:59;;;;;;;13.25;6.97;;;;;;;25.29;51.20;97217.53;1771823;80;25729;-82
2021/07/23 11:35:29;;;;;;;11.28;7.17;;;;;;;25.40;51.44;97212.59;1758768;80;27366;-91